createdAt,value
2018-09-17T00:00:23.935Z,6.68
2018-09-17T00:06:18.945Z,7.21
2018-09-17T00:12:13.963Z,6.16
2018-09-17T00:18:08.935Z,6.37
2018-09-17T00:24:03.984Z,5.95
2018-09-17T00:29:58.941Z,6.4
2018-09-17T00:35:53.971Z,6.56
2018-09-17T00:41:48.962Z,6.37
2018-09-17T00:47:44.290Z,5.95
2018-09-17T00:53:38.986Z,6.42
2018-09-17T00:59:34.008Z,6.68
2018-09-17T01:05:28.970Z,7.22
2018-09-17T01:11:23.990Z,6.34
2018-09-17T01:17:19.001Z,7.88
2018-09-17T01:23:14.038Z,7.3
2018-09-17T01:29:09.003Z,8.86
2018-09-17T01:35:04.003Z,7.29
2018-09-17T01:40:59.007Z,7.45
2018-09-17T01:46:54.000Z,7.53
2018-09-17T01:52:49.003Z,6.88
2018-09-17T01:58:44.001Z,6.71
2018-09-17T02:04:39.035Z,6.98
2018-09-17T02:10:34.016Z,7.68
2018-09-17T02:16:29.051Z,7.65
2018-09-17T02:22:24.028Z,7.85
2018-09-17T02:28:19.017Z,7.35
2018-09-17T02:34:14.094Z,7.89
2018-09-17T02:40:09.041Z,10.52
2018-09-17T02:46:04.109Z,10.47
2018-09-17T02:51:59.065Z,11.13
2018-09-17T02:57:54.039Z,8.37
2018-09-17T03:03:49.080Z,7.93
2018-09-17T03:09:44.101Z,8.05
2018-09-17T03:15:39.055Z,8.47
2018-09-17T03:21:34.096Z,8.64
2018-09-17T03:27:29.081Z,8.08
2018-09-17T03:33:24.079Z,7.77
2018-09-17T03:39:19.066Z,7.52
2018-09-17T03:45:14.079Z,6.83
2018-09-17T03:51:09.079Z,7.1
2018-09-17T03:57:04.086Z,6.38
2018-09-17T04:02:59.082Z,7.06
2018-09-17T04:08:54.092Z,7.78
2018-09-17T04:14:49.140Z,7.7
2018-09-17T04:20:44.098Z,7.4
2018-09-17T04:26:39.110Z,6.8
2018-09-17T04:32:34.092Z,7.16
2018-09-17T04:38:29.155Z,6.82
2018-09-17T04:44:24.102Z,6.23
2018-09-17T04:50:19.105Z,6.31
2018-09-17T04:56:14.134Z,6.97
2018-09-17T05:02:09.138Z,7.48
2018-09-17T05:08:04.118Z,6.66
2018-09-17T05:13:59.142Z,6.63
2018-09-17T05:19:54.132Z,6.66
2018-09-17T05:25:49.115Z,7.11
2018-09-17T05:31:44.133Z,6.37
2018-09-17T05:37:39.149Z,7.18
2018-09-17T05:43:34.154Z,7.38
2018-09-17T05:49:29.146Z,6.84
2018-09-17T05:55:24.153Z,6.64
2018-09-17T06:01:19.180Z,8.35
2018-09-17T06:07:14.140Z,10.21
2018-09-17T06:13:09.153Z,9.86
2018-09-17T06:19:04.212Z,10.06
2018-09-17T06:24:59.198Z,11.93
2018-09-17T06:30:54.158Z,9.51
2018-09-17T06:36:49.174Z,10.17
2018-09-17T06:42:44.177Z,9.76
2018-09-17T06:48:39.188Z,11.36
2018-09-17T06:54:34.195Z,9.25
2018-09-17T07:00:29.269Z,9.42
2018-09-17T07:06:24.225Z,10.59
2018-09-17T07:12:19.235Z,10.31
2018-09-17T07:18:14.190Z,14.79
2018-09-17T07:24:09.192Z,15.54
2018-09-17T07:30:04.210Z,22.42
2018-09-17T07:35:59.217Z,18.7
2018-09-17T07:41:54.217Z,19.58
2018-09-17T07:47:49.311Z,18.29
2018-09-17T07:53:44.210Z,13.42
2018-09-17T07:59:39.216Z,9.93
2018-09-17T08:05:34.310Z,12.13
2018-09-17T08:11:29.213Z,9.37
2018-09-17T08:17:24.245Z,8.89
2018-09-17T08:23:19.271Z,8.73
2018-09-17T08:29:14.245Z,11.76
2018-09-17T08:35:09.256Z,12.94
2018-09-17T08:41:04.253Z,10.5
2018-09-17T08:46:59.260Z,14.02
2018-09-17T08:52:54.306Z,12.19
2018-09-17T08:58:49.262Z,12.45
2018-09-17T09:04:44.264Z,12.29
2018-09-17T09:10:39.266Z,14.67
2018-09-17T09:16:34.276Z,12.49
2018-09-17T09:22:29.267Z,14.19
2018-09-17T09:28:24.298Z,11.87
2018-09-17T09:34:19.268Z,12.17
2018-09-17T09:40:14.299Z,11.44
2018-09-17T09:46:09.306Z,10.97
2018-09-17T09:52:04.294Z,10.67
2018-09-17T09:57:59.345Z,10.95
2018-09-17T10:03:54.291Z,9.14
2018-09-17T10:09:49.308Z,9.11
2018-09-17T10:15:44.294Z,9.15
2018-09-17T10:21:39.315Z,8.04
2018-09-17T10:27:34.294Z,10.55
2018-09-17T10:33:29.310Z,9.16
2018-09-17T10:39:24.336Z,8.99
2018-09-17T10:45:19.327Z,8.62
2018-09-17T10:51:14.315Z,10.05
2018-09-17T10:57:09.326Z,8.09
2018-09-17T11:03:04.384Z,8.27
2018-09-17T11:08:59.329Z,7.87
2018-09-17T11:14:54.330Z,8.83
2018-09-17T11:20:49.342Z,7.73
2018-09-17T11:26:44.336Z,7.19
2018-09-17T11:32:39.467Z,7.65
2018-09-17T11:38:34.369Z,7.8
2018-09-17T11:44:29.359Z,6.61
2018-09-17T11:50:24.366Z,7.93
2018-09-17T11:56:19.350Z,6.93
2018-09-17T12:02:14.400Z,6.9
2018-09-17T12:08:09.396Z,6.26
2018-09-17T12:14:04.421Z,7.99
2018-09-17T12:19:59.401Z,6.79
2018-09-17T12:25:54.388Z,6.75
2018-09-17T12:31:49.396Z,6.69
2018-09-17T12:37:44.398Z,4.96
2018-09-17T12:43:39.417Z,8.53
2018-09-17T12:49:34.393Z,9.23
2018-09-17T12:55:29.393Z,8.92
2018-09-17T13:01:24.395Z,6.54
2018-09-17T13:07:19.398Z,10.7
2018-09-17T13:13:14.397Z,8.17
2018-09-17T13:19:09.426Z,4.5
2018-09-17T13:25:04.411Z,8.45
2018-09-17T13:30:59.411Z,9.51
2018-09-17T13:36:54.432Z,5.97
2018-09-17T13:42:49.423Z,5.32
2018-09-17T13:48:44.499Z,44.95
2018-09-17T13:54:39.443Z,58.06
2018-09-17T14:00:34.448Z,40.72
2018-09-17T14:06:29.466Z,19.56
2018-09-17T14:12:24.466Z,38.75
2018-09-17T14:18:19.449Z,7.86
2018-09-17T14:24:14.490Z,41.77
2018-09-17T14:30:09.446Z,37.75
2018-09-17T14:36:04.463Z,17.25
2018-09-17T14:41:59.510Z,38.28
2018-09-17T14:47:54.515Z,27.76
2018-09-17T14:53:49.499Z,37.89
2018-09-17T14:59:44.484Z,36.1
2018-09-17T15:05:39.487Z,20.73
2018-09-17T15:11:34.535Z,23.67
2018-09-17T15:17:29.526Z,21.02
2018-09-17T15:23:24.506Z,19.77
2018-09-17T15:29:19.524Z,13.01
2018-09-17T15:35:14.515Z,28.28
2018-09-17T15:41:09.718Z,25
2018-09-17T15:47:04.504Z,27.62
2018-09-17T15:52:59.491Z,26.09
2018-09-17T15:58:54.514Z,18.6
2018-09-17T16:04:49.529Z,19.01
2018-09-17T16:10:44.564Z,23.54
2018-09-17T16:16:39.567Z,22.34
2018-09-17T16:22:34.506Z,14.13
2018-09-17T16:28:29.526Z,22.63
2018-09-17T16:34:24.531Z,12.99
2018-09-17T16:40:19.527Z,21.39
2018-09-17T16:46:14.540Z,20.75
2018-09-17T16:52:09.596Z,23.83
2018-09-17T16:58:04.538Z,21.7
2018-09-17T17:03:59.524Z,23.89
2018-09-17T17:09:54.600Z,19.25
2018-09-17T17:15:49.571Z,6.27
2018-09-17T17:21:44.564Z,7.92
2018-09-17T17:27:39.556Z,8.52
2018-09-17T17:33:34.549Z,7.18
2018-09-17T17:39:29.695Z,6.11
2018-09-17T17:45:24.579Z,12.52
2018-09-17T17:51:19.615Z,6.32
2018-09-17T17:57:14.604Z,7.63
2018-09-17T18:03:09.592Z,6.76
2018-09-17T18:09:04.593Z,5.33
2018-09-17T18:14:59.683Z,6.23
2018-09-17T18:20:54.708Z,5.82
2018-09-17T18:26:49.640Z,5.93
2018-09-17T18:32:44.664Z,7.01
2018-09-17T18:38:39.681Z,6.64
2018-09-17T18:44:34.584Z,7.64
2018-09-17T18:50:29.581Z,7.6
2018-09-17T18:56:24.615Z,6.95
2018-09-17T19:02:19.629Z,5.71
2018-09-17T19:08:14.620Z,6.21
2018-09-17T19:14:09.619Z,5.28
2018-09-17T19:20:04.706Z,5.31
2018-09-17T19:25:59.777Z,5.92
2018-09-17T19:31:54.798Z,5.32
2018-09-17T19:37:49.756Z,5.77
2018-09-17T19:43:44.651Z,6.07
2018-09-17T19:49:39.743Z,7.76
2018-09-17T19:55:34.649Z,6.7
2018-09-17T20:01:29.686Z,5.94
2018-09-17T20:13:19.665Z,6.18
2018-09-17T20:13:19.706Z,6.43
2018-09-17T20:19:14.665Z,6.06
2018-09-17T20:25:09.669Z,5.85
2018-09-17T20:31:04.678Z,6.12
2018-09-17T20:36:59.669Z,6.5
2018-09-17T20:42:54.695Z,8.23
2018-09-17T20:48:49.868Z,7.31
2018-09-17T20:54:44.744Z,6.62
2018-09-17T21:00:39.695Z,6.61
2018-09-17T21:06:34.685Z,6.01
2018-09-17T21:12:29.736Z,6.06
2018-09-17T21:18:24.703Z,7.11
2018-09-17T21:24:19.692Z,6.64
2018-09-17T21:30:14.737Z,6.31
2018-09-17T21:36:09.709Z,6.81
2018-09-17T21:42:04.698Z,6.85
2018-09-17T21:47:59.723Z,6.23
2018-09-17T21:53:54.787Z,6.64
2018-09-17T21:59:49.708Z,6.89
2018-09-17T22:05:44.723Z,6.65
2018-09-17T22:11:39.794Z,7.33
2018-09-17T22:17:34.760Z,6.68
2018-09-17T22:23:29.803Z,7.34
2018-09-17T22:29:24.785Z,7.2
2018-09-17T22:35:19.800Z,7.65
2018-09-17T22:41:14.731Z,7.07
2018-09-17T22:47:09.769Z,7.03
2018-09-17T22:53:04.756Z,6.97
2018-09-17T22:58:59.743Z,7.46
2018-09-17T23:04:54.809Z,6.88
2018-09-17T23:10:49.779Z,6.98
2018-09-17T23:16:44.803Z,6.59
2018-09-17T23:22:39.777Z,6.06
2018-09-17T23:28:34.765Z,6.79
2018-09-17T23:34:29.761Z,7.48
2018-09-17T23:40:24.788Z,6.03
2018-09-17T23:46:19.779Z,6.4
2018-09-17T23:52:14.828Z,6.03
2018-09-17T23:58:09.827Z,6.22
